Time;durP1;ratioP1;P1;durP2;ratioP2;P2;SDS_P1;SDS_P2;PMS_P1;PMS_P2;Temp;Humidity;BMP_temperature;BMP_pressure;BME280_temperature;BME280_humidity;BME280_pressure;Samples;Min_cycle;Max_cycle;Signal;HPM_P1;HPM_P2
2022/01/26 00:00:57;;;;;;;105.57;40.15;;;3.60;99.90;;;;;;5018614;28;20049;-41
2022/01/26 00:06:12;;;;;;;104.68;38.92;;;3.50;99.90;;;;;;5034961;28;20049;-42
2022/01/26 00:08:39;;;;;;;96.03;36.53;;;3.50;99.90;;;;;;5034005;28;20049;-41
2022/01/26 00:11:06;;;;;;;104.88;40.53;;;3.50;99.90;;;;;;5033658;28;20385;-41
2022/01/26 00:13:37;;;;;;;104.60;42.30;;;3.50;99.90;;;;;;5034540;28;20045;-41
2022/01/26 00:16:08;;;;;;;110.53;41.88;;;3.50;99.90;;;;;;5035848;28;20041;-41
2022/01/26 00:18:37;;;;;;;107.60;40.45;;;3.50;99.90;;;;;;5034557;28;20044;-41
2022/01/26 00:21:12;;;;;;;107.55;40.92;;;3.50;99.90;;;;;;5031019;28;20128;-41
2022/01/26 00:26:30;;;;;;;106.47;40.53;;;3.40;99.90;;;;;;5049880;28;20057;-41
2022/01/26 00:29:09;;;;;;;102.03;41.30;;;3.50;99.90;;;;;;5032976;28;20126;-40
2022/01/26 00:39:44;;;;;;;113.38;41.92;;;3.40;99.90;;;;;;5038631;28;20045;-41
2022/01/26 00:42:11;;;;;;;103.03;40.28;;;3.40;99.90;;;;;;5034487;28;20091;-41
2022/01/26 00:44:44;;;;;;;103.43;39.05;;;3.30;99.90;;;;;;5036396;28;20041;-41
2022/01/26 00:47:11;;;;;;;114.38;41.45;;;3.30;99.90;;;;;;5037922;28;20041;-41
2022/01/26 00:49:37;;;;;;;109.05;42.58;;;3.30;99.90;;;;;;5039351;28;20048;-41
2022/01/26 00:52:06;;;;;;;111.93;42.35;;;3.30;99.90;;;;;;5036012;28;20055;-41
2022/01/26 00:54:34;;;;;;;105.22;40.88;;;3.30;99.90;;;;;;5035274;28;20045;-41
2022/01/26 00:57:01;;;;;;;113.07;42.25;;;3.30;99.90;;;;;;5027621;28;20056;-41
2022/01/26 00:59:28;;;;;;;115.43;43.08;;;3.30;99.90;;;;;;5031184;28;20052;-41
2022/01/26 01:01:56;;;;;;;105.93;42.28;;;3.30;99.90;;;;;;5028293;28;20127;-41
2022/01/26 01:04:23;;;;;;;103.68;39.67;;;3.30;99.90;;;;;;5029458;28;20049;-41
2022/01/26 01:06:55;;;;;;;106.20;40.38;;;3.30;99.90;;;;;;5030905;28;20068;-41
2022/01/26 01:09:23;;;;;;;101.72;40.13;;;3.30;99.90;;;;;;5031491;28;20422;-41
2022/01/26 01:11:55;;;;;;;105.45;41.17;;;3.30;99.90;;;;;;5030145;28;20057;-41
2022/01/26 01:14:22;;;;;;;107.28;40.40;;;3.30;99.90;;;;;;5029896;28;21319;-41
2022/01/26 01:16:49;;;;;;;87.68;37.40;;;3.20;99.90;;;;;;5027959;28;20052;-41
2022/01/26 01:19:30;;;;;;;94.85;37.97;;;3.30;99.90;;;;;;5028882;28;20428;-41
2022/01/26 01:27:48;;;;;;;105.57;42.78;;;3.30;99.90;;;;;;5029387;28;20045;-41
2022/01/26 01:30:27;;;;;;;103.80;41.42;;;3.30;99.90;;;;;;5028153;28;20133;-41
2022/01/26 01:32:55;;;;;;;96.15;37.70;;;3.20;99.90;;;;;;5029430;28;20045;-41
2022/01/26 01:35:24;;;;;;;103.43;42.20;;;3.30;99.90;;;;;;5032077;28;20056;-41
2022/01/26 01:37:52;;;;;;;109.65;41.42;;;3.20;99.90;;;;;;5029290;28;20092;-41
2022/01/26 01:40:18;;;;;;;95.30;38.92;;;3.20;99.90;;;;;;5030611;28;20135;-41
2022/01/26 01:42:45;;;;;;;110.60;41.80;;;3.20;99.90;;;;;;5029901;28;20073;-41
2022/01/26 01:45:12;;;;;;;95.85;39.47;;;3.20;99.90;;;;;;5028840;28;20052;-41
2022/01/26 01:47:39;;;;;;;100.82;38.38;;;3.20;99.90;;;;;;5030933;28;20120;-41
2022/01/26 01:50:09;;;;;;;108.25;41.25;;;3.20;99.90;;;;;;5031168;28;20044;-41
2022/01/26 01:52:37;;;;;;;101.60;39.08;;;3.20;99.90;;;;;;5030136;28;20132;-40
2022/01/26 01:55:05;;;;;;;101.47;39.30;;;3.20;99.90;;;;;;5029511;28;20073;-41
2022/01/26 01:57:32;;;;;;;97.72;39.58;;;3.10;99.90;;;;;;5028860;28;20045;-41
2022/01/26 01:59:59;;;;;;;102.35;38.45;;;3.20;99.90;;;;;;5033262;28;20148;-39
2022/01/26 02:02:26;;;;;;;110.55;40.67;;;3.20;99.90;;;;;;5030256;28;20392;-40
2022/01/26 02:04:52;;;;;;;102.32;38.85;;;3.10;99.90;;;;;;5029967;28;20045;-40
2022/01/26 02:07:19;;;;;;;113.35;41.05;;;3.10;99.90;;;;;;5031138;28;20050;-40
2022/01/26 02:09:47;;;;;;;101.32;39.50;;;3.10;99.90;;;;;;5032510;28;20045;-40
2022/01/26 02:12:16;;;;;;;105.65;39.20;;;3.10;99.90;;;;;;5028924;28;20136;-40
2022/01/26 02:14:47;;;;;;;107.10;40.47;;;3.10;99.90;;;;;;5029615;28;20458;-40
2022/01/26 02:17:25;;;;;;;;;;;3.10;99.90;;;;;;5029617;28;20388;-40
2022/01/26 02:20:21;;;;;;;97.38;38.17;;;3.10;99.90;;;;;;5031671;28;20327;-40
2022/01/26 02:50:38;;;;;;;113.85;41.45;;;3.00;99.90;;;;;;5031074;28;20041;-40
2022/01/26 02:53:25;;;;;;;100.88;39.10;;;3.00;99.90;;;;;;5029484;28;20041;-40
2022/01/26 02:55:57;;;;;;;107.55;39.40;;;3.00;99.90;;;;;;5028280;28;20080;-40
2022/01/26 03:01:30;;;;;;;113.93;40.97;;;3.00;99.90;;;;;;5028679;28;20050;-41
2022/01/26 03:04:05;;;;;;;114.82;41.47;;;3.00;99.90;;;;;;5030686;28;20417;-40
2022/01/26 03:06:38;;;;;;;115.68;43.22;;;3.00;99.90;;;;;;5029326;28;20037;-40
2022/01/26 03:09:10;;;;;;;114.57;41.00;;;3.00;99.90;;;;;;5027124;28;20069;-40
2022/01/26 03:11:40;;;;;;;119.80;42.20;;;3.00;99.90;;;;;;5029506;28;20450;-40
2022/01/26 03:14:15;;;;;;;118.68;43.08;;;3.00;99.90;;;;;;5026830;28;20064;-40
2022/01/26 03:16:47;;;;;;;119.03;43.58;;;3.00;99.90;;;;;;5030704;28;20042;-40
2022/01/26 03:19:20;;;;;;;116.28;43.70;;;3.00;99.90;;;;;;5029354;28;20045;-40
2022/01/26 03:21:56;;;;;;;107.15;41.17;;;2.90;99.90;;;;;;5027781;28;20517;-40
2022/01/26 03:30:05;;;;;;;123.63;42.53;;;2.90;99.90;;;;;;4996340;28;20050;-40
2022/01/26 03:32:58;;;;;;;115.63;41.75;;;2.90;99.90;;;;;;5029477;28;20385;-40
2022/01/26 03:35:39;;;;;;;118.38;42.72;;;2.90;99.90;;;;;;5027589;28;20045;-40
2022/01/26 03:38:07;;;;;;;106.85;40.03;;;2.90;99.90;;;;;;5029445;28;20115;-40
2022/01/26 03:40:38;;;;;;;121.47;43.42;;;2.90;99.90;;;;;;5030141;28;20107;-40
2022/01/26 03:43:06;;;;;;;;;;;2.80;99.90;;;;;;5029972;28;20049;-40
2022/01/26 03:45:33;;;;;;;112.00;38.88;;;2.80;99.90;;;;;;5031716;28;19929;-40
2022/01/26 03:48:00;;;;;;;102.88;37.67;;;2.80;99.90;;;;;;5033289;28;20051;-40
2022/01/26 03:50:27;;;;;;;112.20;40.72;;;2.80;99.90;;;;;;5031064;28;20076;-39
2022/01/26 03:52:53;;;;;;;119.22;41.17;;;2.80;99.90;;;;;;5030990;28;20137;-40
2022/01/26 03:55:20;;;;;;;120.22;43.05;;;2.80;99.90;;;;;;5032563;28;20053;-40
2022/01/26 03:57:47;;;;;;;112.55;40.38;;;2.80;99.90;;;;;;5032504;28;20128;-40
2022/01/26 04:00:17;;;;;;;116.82;39.70;;;2.80;99.90;;;;;;5032574;28;20048;-40
2022/01/26 04:02:44;;;;;;;123.97;41.72;;;2.80;99.90;;;;;;5025793;28;20559;-41
2022/01/26 04:05:12;;;;;;;111.05;39.75;;;2.80;99.90;;;;;;5031879;28;20045;-40
2022/01/26 04:07:39;;;;;;;113.95;40.38;;;2.80;99.90;;;;;;5032403;28;20046;-40
2022/01/26 04:10:16;;;;;;;113.38;40.85;;;2.80;99.90;;;;;;5034683;28;20081;-40
2022/01/26 04:12:43;;;;;;;100.72;36.67;;;2.80;99.90;;;;;;5032136;28;20049;-40
2022/01/26 04:15:19;;;;;;;120.97;41.70;;;2.80;99.90;;;;;;5033322;28;20044;-40
2022/01/26 04:17:48;;;;;;;95.65;35.95;;;2.90;99.90;;;;;;5031639;28;20074;-40
2022/01/26 04:20:15;;;;;;;108.30;38.13;;;2.90;99.90;;;;;;5031839;28;20037;-40
2022/01/26 04:22:51;;;;;;;109.07;39.65;;;2.90;99.90;;;;;;5032941;28;20543;-40
2022/01/26 04:25:22;;;;;;;110.63;39.78;;;2.90;99.90;;;;;;5031716;28;20033;-40
2022/01/26 04:27:50;;;;;;;100.60;37.30;;;2.80;99.90;;;;;;5031796;28;20095;-40
2022/01/26 04:30:16;;;;;;;99.00;37.75;;;2.80;99.90;;;;;;5032007;28;21476;-40
2022/01/26 04:32:43;;;;;;;110.60;39.35;;;2.80;99.90;;;;;;5032675;28;20366;-40
2022/01/26 04:35:12;;;;;;;112.45;39.65;;;2.80;99.90;;;;;;5030700;28;20051;-40
2022/01/26 04:37:56;;;;;;;118.55;41.33;;;2.80;99.90;;;;;;5025803;28;20546;-40
2022/01/26 04:40:23;;;;;;;107.43;39.50;;;2.80;99.90;;;;;;5030592;28;20049;-40
2022/01/26 04:42:56;;;;;;;104.78;37.63;;;2.80;99.90;;;;;;5031469;28;20041;-40
2022/01/26 04:45:23;;;;;;;110.10;38.22;;;2.80;99.90;;;;;;5031585;28;20060;-40
2022/01/26 04:47:49;;;;;;;108.32;38.45;;;2.80;99.90;;;;;;5032704;28;20056;-40
2022/01/26 04:50:17;;;;;;;109.15;39.50;;;2.80;99.90;;;;;;5029092;28;20077;-40
2022/01/26 04:52:45;;;;;;;106.90;37.25;;;2.80;99.90;;;;;;5029875;28;20142;-40
2022/01/26 04:55:12;;;;;;;102.70;36.03;;;2.80;99.90;;;;;;5032055;28;20049;-41
2022/01/26 04:57:39;;;;;;;113.07;39.22;;;2.80;99.90;;;;;;5031850;28;20385;-40
2022/01/26 05:00:07;;;;;;;103.20;36.00;;;2.80;99.90;;;;;;5031578;28;20049;-40
2022/01/26 05:02:34;;;;;;;109.13;36.60;;;2.70;99.90;;;;;;5031336;28;20128;-40
2022/01/26 05:05:00;;;;;;;105.38;37.63;;;2.70;99.90;;;;;;5028794;28;20129;-40
2022/01/26 05:07:28;;;;;;;104.72;36.20;;;2.70;99.90;;;;;;5031345;28;20049;-40
2022/01/26 05:09:55;;;;;;;101.57;36.67;;;2.70;99.90;;;;;;5031467;28;20054;-40
2022/01/26 05:12:22;;;;;;;107.18;39.63;;;2.70;99.90;;;;;;5030393;28;20048;-40
2022/01/26 05:14:50;;;;;;;109.30;37.53;;;2.70;99.90;;;;;;5030100;28;20485;-40
2022/01/26 05:17:20;;;;;;;103.63;35.60;;;2.60;99.90;;;;;;5027516;28;20508;-40
2022/01/26 05:19:46;;;;;;;104.25;37.33;;;2.70;99.90;;;;;;5031297;28;20540;-40
2022/01/26 05:22:13;;;;;;;101.57;36.60;;;2.70;99.90;;;;;;5030466;28;20149;-40
2022/01/26 05:24:41;;;;;;;96.07;34.15;;;2.70;99.90;;;;;;5031829;28;20414;-40
2022/01/26 05:27:08;;;;;;;98.93;35.58;;;2.70;99.90;;;;;;5020345;28;20045;-40
2022/01/26 05:29:34;;;;;;;101.60;35.30;;;2.80;99.90;;;;;;5031455;28;20037;-40
2022/01/26 05:32:01;;;;;;;101.60;34.50;;;2.80;99.90;;;;;;5030923;28;20045;-40
2022/01/26 05:34:28;;;;;;;92.70;32.80;;;2.80;99.90;;;;;;5030675;28;20124;-40
2022/01/26 05:36:55;;;;;;;97.13;33.35;;;2.80;99.90;;;;;;5030131;28;20442;-43
2022/01/26 05:39:21;;;;;;;94.00;33.60;;;2.80;99.90;;;;;;5032171;28;20067;-40
2022/01/26 05:41:49;;;;;;;92.82;34.22;;;2.80;99.90;;;;;;5030336;28;20049;-40
2022/01/26 05:44:16;;;;;;;94.60;33.60;;;2.80;99.90;;;;;;5030386;28;20055;-40
2022/01/26 05:46:46;;;;;;;89.53;31.00;;;2.80;99.90;;;;;;5031832;28;20076;-40
2022/01/26 05:49:13;;;;;;;89.45;34.58;;;2.80;99.90;;;;;;5031717;28;20045;-40
2022/01/26 05:51:40;;;;;;;92.60;32.22;;;2.80;99.90;;;;;;5029955;28;20085;-40
2022/01/26 05:54:09;;;;;;;84.13;29.88;;;2.80;99.90;;;;;;5030668;28;20179;-40
2022/01/26 05:56:36;;;;;;;92.90;32.03;;;2.70;99.90;;;;;;5029897;28;20438;-40
2022/01/26 05:59:04;;;;;;;88.13;31.42;;;2.70;99.90;;;;;;5033236;28;20385;-40
2022/01/26 06:01:30;;;;;;;86.95;31.25;;;2.70;99.90;;;;;;5030135;28;20048;-40
2022/01/26 06:03:57;;;;;;;89.53;31.80;;;2.70;99.90;;;;;;5030755;28;20046;-40
2022/01/26 06:06:24;;;;;;;89.25;32.33;;;2.70;99.90;;;;;;5031448;28;20054;-40
2022/01/26 06:08:50;;;;;;;88.68;32.38;;;2.70;99.90;;;;;;5029661;28;20056;-40
2022/01/26 06:11:17;;;;;;;82.60;31.17;;;2.70;99.90;;;;;;5028840;28;20508;-40
2022/01/26 06:13:44;;;;;;;89.97;31.70;;;2.70;99.90;;;;;;5030463;28;20388;-41
2022/01/26 06:16:13;;;;;;;93.32;32.35;;;2.70;99.90;;;;;;5029799;28;20080;-40
2022/01/26 06:18:40;;;;;;;85.45;30.95;;;2.80;99.90;;;;;;5029636;28;20040;-40
2022/01/26 06:21:08;;;;;;;87.65;30.77;;;2.70;99.90;;;;;;5029256;28;20053;-41
2022/01/26 06:23:34;;;;;;;86.70;30.13;;;2.70;99.90;;;;;;5027697;28;20037;-41
2022/01/26 06:26:01;;;;;;;82.90;28.33;;;2.80;99.90;;;;;;5028213;28;20049;-41
2022/01/26 06:28:28;;;;;;;80.32;30.33;;;2.80;99.90;;;;;;5029264;28;20046;-41
2022/01/26 06:30:58;;;;;;;77.82;27.95;;;2.70;99.90;;;;;;5029261;28;20053;-41
2022/01/26 06:33:26;;;;;;;77.32;28.63;;;2.80;99.90;;;;;;5025652;28;20115;-40
2022/01/26 06:35:55;;;;;;;80.32;28.85;;;2.80;99.90;;;;;;5029142;28;20049;-41
2022/01/26 06:38:24;;;;;;;76.68;28.73;;;2.70;99.90;;;;;;5030412;28;20033;-41
2022/01/26 06:40:51;;;;;;;75.45;28.05;;;2.80;99.90;;;;;;5031065;28;20389;-41
2022/01/26 06:43:18;;;;;;;75.65;28.23;;;2.80;99.90;;;;;;5031468;28;20046;-40
2022/01/26 06:45:49;;;;;;;75.97;27.42;;;2.80;99.90;;;;;;5018233;28;20053;-41
2022/01/26 06:48:43;;;;;;;75.63;28.27;;;2.80;99.90;;;;;;5028313;28;20052;-41
2022/01/26 06:51:12;;;;;;;82.43;29.92;;;2.80;99.90;;;;;;5029709;28;20045;-41
2022/01/26 06:53:39;;;;;;;74.18;28.33;;;2.80;99.90;;;;;;5028213;28;20045;-41
2022/01/26 06:56:06;;;;;;;79.43;28.48;;;2.80;99.90;;;;;;5025246;28;20058;-41
2022/01/26 06:58:32;;;;;;;75.28;28.52;;;2.80;99.90;;;;;;5027314;28;20797;-41
2022/01/26 07:00:59;;;;;;;75.45;27.55;;;2.80;99.90;;;;;;5025213;28;20041;-41
2022/01/26 07:03:26;;;;;;;86.50;29.88;;;2.80;99.90;;;;;;5028649;28;20062;-40
2022/01/26 07:05:52;;;;;;;79.78;30.20;;;2.80;99.90;;;;;;5021866;28;20038;-41
2022/01/26 07:08:20;;;;;;;78.78;29.73;;;2.80;99.90;;;;;;5022698;28;20488;-40
2022/01/26 07:10:49;;;;;;;71.57;28.20;;;2.80;99.90;;;;;;5026559;28;20045;-40
2022/01/26 07:13:16;;;;;;;77.13;30.55;;;2.80;99.90;;;;;;5020557;28;20048;-40
2022/01/26 07:21:26;;;;;;;83.75;32.30;;;2.80;99.90;;;;;;5030703;28;20041;-40
2022/01/26 07:23:54;;;;;;;87.63;31.75;;;2.80;99.90;;;;;;5032436;28;20408;-40
2022/01/26 07:26:21;;;;;;;91.03;33.15;;;2.80;99.90;;;;;;5028700;28;20037;-40
2022/01/26 07:28:47;;;;;;;86.30;33.83;;;2.80;99.90;;;;;;5032614;28;20069;-40
2022/01/26 07:31:14;;;;;;;85.50;34.35;;;2.80;99.90;;;;;;5031464;28;20144;-40
2022/01/26 07:33:42;;;;;;;93.22;34.88;;;2.80;99.90;;;;;;5023191;28;20107;-40
2022/01/26 07:36:09;;;;;;;92.47;35.58;;;2.80;99.90;;;;;;5025081;28;20087;-40
2022/01/26 07:38:35;;;;;;;92.95;35.17;;;2.80;99.90;;;;;;5031602;28;20049;-40
2022/01/26 07:41:03;;;;;;;94.15;38.80;;;2.80;99.90;;;;;;5029806;28;20045;-40
2022/01/26 07:43:30;;;;;;;97.60;38.40;;;2.80;99.90;;;;;;5029126;28;20037;-40
2022/01/26 07:45:57;;;;;;;99.72;37.72;;;2.90;99.90;;;;;;5030516;28;20064;-40
2022/01/26 07:48:24;;;;;;;106.53;39.75;;;2.80;99.90;;;;;;5031888;28;20504;-40
2022/01/26 07:50:51;;;;;;;102.38;40.03;;;2.90;99.90;;;;;;5027994;28;20057;-40
2022/01/26 07:53:18;;;;;;;102.28;40.85;;;2.90;99.90;;;;;;5027736;28;20057;-40
2022/01/26 07:55:45;;;;;;;103.30;41.38;;;2.90;99.90;;;;;;5029368;28;20136;-40
2022/01/26 07:58:13;;;;;;;109.97;42.20;;;2.90;99.90;;;;;;5025901;28;20045;-40
2022/01/26 08:00:40;;;;;;;107.60;42.67;;;2.90;99.90;;;;;;5029772;28;20044;-40
2022/01/26 08:03:06;;;;;;;113.32;44.03;;;2.90;99.90;;;;;;5030429;28;20060;-40
2022/01/26 08:05:33;;;;;;;113.13;44.50;;;2.90;99.90;;;;;;5028922;28;20045;-40
2022/01/26 08:08:00;;;;;;;118.07;45.70;;;2.90;99.90;;;;;;5027334;28;20053;-40
2022/01/26 08:10:27;;;;;;;117.72;48.75;;;3.00;99.90;;;;;;5028275;28;20045;-40
2022/01/26 08:12:53;;;;;;;125.38;48.53;;;2.90;99.90;;;;;;5031512;28;20053;-41
2022/01/26 08:15:22;;;;;;;119.07;50.50;;;2.90;99.90;;;;;;5029968;28;20421;-40
2022/01/26 08:17:48;;;;;;;135.48;51.63;;;3.00;99.90;;;;;;5029567;28;20444;-40
2022/01/26 08:20:15;;;;;;;128.10;52.70;;;3.00;99.90;;;;;;5030884;28;20111;-40
2022/01/26 08:22:42;;;;;;;140.38;55.03;;;3.00;99.90;;;;;;5031469;28;20084;-40
2022/01/26 08:25:10;;;;;;;142.85;56.08;;;3.00;99.90;;;;;;5034265;28;20053;-40
2022/01/26 08:27:41;;;;;;;145.77;60.42;;;3.00;99.90;;;;;;5030885;28;20050;-40
2022/01/26 08:30:10;;;;;;;150.75;58.85;;;3.10;99.90;;;;;;5028149;28;20498;-41
2022/01/26 08:32:39;;;;;;;144.70;59.80;;;3.10;99.90;;;;;;5030470;28;20037;-40
2022/01/26 08:35:07;;;;;;;156.52;62.40;;;3.10;99.90;;;;;;5027941;28;20477;-40
2022/01/26 08:37:34;;;;;;;152.10;62.95;;;3.10;99.90;;;;;;5025191;28;20053;-40
2022/01/26 08:40:00;;;;;;;162.40;64.75;;;3.10;99.90;;;;;;5026997;28;20061;-41
2022/01/26 08:42:27;;;;;;;162.70;65.25;;;3.10;99.90;;;;;;5027551;28;20060;-40
2022/01/26 08:44:54;;;;;;;158.55;65.45;;;3.20;99.90;;;;;;5030931;28;20069;-40
2022/01/26 08:47:21;;;;;;;162.80;66.93;;;3.20;99.90;;;;;;5026608;28;20063;-42
2022/01/26 08:49:49;;;;;;;161.40;66.70;;;3.20;99.90;;;;;;5025342;28;20485;-40
2022/01/26 08:52:15;;;;;;;174.93;68.47;;;3.20;99.90;;;;;;5029654;28;20128;-40
2022/01/26 08:54:42;;;;;;;167.38;65.93;;;3.20;99.90;;;;;;5028561;28;20474;-40
2022/01/26 08:57:09;;;;;;;174.77;68.07;;;3.30;99.90;;;;;;5027929;28;20685;-40
2022/01/26 08:59:36;;;;;;;163.63;67.15;;;3.30;99.90;;;;;;5032055;28;20069;-40
2022/01/26 09:02:03;;;;;;;180.98;70.05;;;3.30;99.90;;;;;;5032003;28;20041;-40
2022/01/26 09:04:29;;;;;;;172.65;70.82;;;3.30;99.90;;;;;;5029696;28;20179;-40
2022/01/26 09:07:00;;;;;;;177.23;72.47;;;3.30;99.90;;;;;;5025766;28;20051;-40
2022/01/26 09:09:30;;;;;;;168.20;64.80;;;3.40;99.90;;;;;;5028910;28;20042;-40
2022/01/26 09:11:59;;;;;;;170.30;66.50;;;3.30;99.90;;;;;;5026495;28;20041;-40
2022/01/26 09:14:28;;;;;;;174.55;69.70;;;3.40;99.90;;;;;;5023986;28;20055;-40
2022/01/26 09:16:55;;;;;;;175.32;68.18;;;3.40;99.90;;;;;;5027252;28;20046;-40
2022/01/26 09:19:27;;;;;;;175.07;68.57;;;3.40;99.90;;;;;;5027052;28;20045;-40
2022/01/26 09:21:54;;;;;;;169.63;67.50;;;3.40;99.90;;;;;;5032765;28;20132;-40
2022/01/26 09:24:22;;;;;;;179.32;67.88;;;3.40;99.90;;;;;;5033607;28;20091;-40
2022/01/26 09:26:49;;;;;;;174.10;67.10;;;3.40;99.90;;;;;;5032648;28;20052;-40
2022/01/26 09:29:16;;;;;;;165.85;67.15;;;3.50;99.90;;;;;;5034853;28;20050;-40
2022/01/26 09:31:47;;;;;;;168.32;68.75;;;3.50;99.90;;;;;;5036585;28;20120;-40
2022/01/26 09:34:14;;;;;;;173.73;68.45;;;3.50;99.90;;;;;;5028262;28;20041;-40
2022/01/26 09:36:41;;;;;;;176.52;71.88;;;3.50;99.90;;;;;;5026851;28;20493;-41
2022/01/26 09:39:07;;;;;;;166.48;66.85;;;3.50;99.90;;;;;;5026753;28;20792;-40
2022/01/26 09:41:37;;;;;;;166.13;67.70;;;3.60;99.90;;;;;;5031034;28;20393;-41
2022/01/26 09:44:04;;;;;;;164.55;64.97;;;3.60;99.90;;;;;;5032003;28;20094;-40
2022/01/26 09:46:31;;;;;;;159.48;66.97;;;3.60;99.90;;;;;;5023625;28;20041;-40
2022/01/26 09:48:58;;;;;;;161.30;65.88;;;3.60;99.90;;;;;;5026381;28;20042;-40
2022/01/26 09:51:24;;;;;;;163.02;63.88;;;3.70;99.90;;;;;;5032921;28;20482;-40
2022/01/26 09:54:02;;;;;;;147.15;58.55;;;3.70;99.90;;;;;;5035507;28;20059;-40
2022/01/26 09:56:29;;;;;;;149.02;60.88;;;3.70;99.90;;;;;;5025424;28;20045;-40
2022/01/26 09:58:57;;;;;;;156.32;61.95;;;3.70;99.90;;;;;;5031831;28;20148;-40
2022/01/26 10:01:24;;;;;;;149.60;59.90;;;3.80;99.90;;;;;;5033960;28;20037;-40
2022/01/26 10:03:51;;;;;;;157.27;64.38;;;3.80;99.90;;;;;;5032488;28;20045;-40
2022/01/26 10:06:20;;;;;;;152.63;59.00;;;3.80;99.90;;;;;;5028608;28;20053;-40
2022/01/26 10:09:02;;;;;;;142.98;58.10;;;3.80;99.90;;;;;;5034033;28;20080;-40
2022/01/26 10:19:43;;;;;;;135.82;57.25;;;4.00;99.90;;;;;;5031043;28;20036;-40
2022/01/26 10:22:10;;;;;;;134.82;56.90;;;4.00;99.90;;;;;;5030768;28;20433;-40
2022/01/26 10:24:36;;;;;;;130.63;55.17;;;4.00;99.90;;;;;;5027907;28;20044;-41
2022/01/26 10:27:04;;;;;;;141.38;56.00;;;4.00;99.90;;;;;;5035428;28;20441;-40
2022/01/26 10:29:33;;;;;;;138.65;59.50;;;4.00;99.90;;;;;;5026863;28;20052;-40
2022/01/26 10:32:11;;;;;;;137.27;57.40;;;4.10;99.90;;;;;;5029641;28;20420;-41
2022/01/26 10:34:37;;;;;;;141.82;58.38;;;4.10;99.90;;;;;;5028027;28;20076;-41
2022/01/26 10:37:04;;;;;;;130.68;56.65;;;4.10;99.90;;;;;;5027537;28;20048;-41
2022/01/26 10:39:36;;;;;;;128.65;54.65;;;4.10;99.90;;;;;;5029010;28;20099;-41
2022/01/26 10:42:06;;;;;;;141.48;57.78;;;4.10;99.90;;;;;;5029088;28;20053;-41
2022/01/26 10:44:39;;;;;;;137.77;58.08;;;4.10;99.90;;;;;;5030198;28;20049;-41
2022/01/26 10:47:07;;;;;;;134.52;56.45;;;4.10;99.90;;;;;;5024267;28;20045;-41
2022/01/26 10:49:55;;;;;;;127.85;55.42;;;4.10;99.90;;;;;;5026327;28;20045;-42
2022/01/26 10:52:31;;;;;;;138.18;55.50;;;4.20;99.90;;;;;;5027459;28;20485;-41
2022/01/26 10:54:57;;;;;;;122.97;50.75;;;4.20;99.90;;;;;;5029641;28;20452;-40
2022/01/26 10:57:25;;;;;;;124.75;53.90;;;4.20;99.90;;;;;;5031534;28;20049;-41
2022/01/26 10:59:53;;;;;;;127.95;53.25;;;4.20;99.90;;;;;;5030188;28;20041;-41
2022/01/26 11:02:24;;;;;;;117.30;49.95;;;4.30;99.90;;;;;;5031848;28;20045;-41
2022/01/26 11:04:51;;;;;;;134.30;52.35;;;4.30;99.90;;;;;;5033478;28;20052;-41
2022/01/26 11:07:17;;;;;;;133.75;55.28;;;4.30;99.90;;;;;;5032568;28;20385;-41
2022/01/26 11:09:46;;;;;;;125.40;54.33;;;4.30;99.90;;;;;;5033125;28;20055;-41
2022/01/26 11:12:13;;;;;;;135.48;57.45;;;4.30;99.90;;;;;;5031330;28;20124;-42
2022/01/26 11:14:41;;;;;;;131.27;55.05;;;4.30;99.90;;;;;;5039872;28;20618;-41
2022/01/26 11:17:10;;;;;;;137.90;56.40;;;4.30;99.90;;;;;;5033430;28;20052;-42
2022/01/26 11:19:43;;;;;;;137.65;55.83;;;4.30;99.90;;;;;;5033415;28;20053;-41
2022/01/26 11:22:11;;;;;;;143.20;57.95;;;4.40;99.90;;;;;;5032618;28;20061;-41
2022/01/26 11:24:44;;;;;;;133.32;55.53;;;4.40;99.90;;;;;;5039902;28;20500;-41
2022/01/26 11:27:11;;;;;;;141.43;57.65;;;4.40;99.90;;;;;;5028012;28;20042;-41
2022/01/26 11:29:42;;;;;;;140.13;57.33;;;4.40;99.90;;;;;;5030762;28;20047;-41
2022/01/26 11:32:14;;;;;;;136.35;56.10;;;4.30;99.90;;;;;;5033743;28;20345;-41
2022/01/26 11:34:41;;;;;;;134.23;55.85;;;4.40;99.90;;;;;;5026075;28;20041;-42
2022/01/26 11:37:09;;;;;;;136.73;55.28;;;4.40;99.90;;;;;;5026745;28;20572;-41
2022/01/26 11:45:10;;;;;;;127.55;53.92;;;4.40;99.90;;;;;;5037155;28;20053;-42
2022/01/26 11:47:40;;;;;;;134.55;56.30;;;4.40;99.90;;;;;;5019688;28;20060;-41
2022/01/26 11:50:14;;;;;;;132.43;55.40;;;4.40;99.90;;;;;;5029594;28;20068;-41
2022/01/26 11:52:41;;;;;;;135.95;56.67;;;4.40;99.90;;;;;;5031461;28;20412;-41
2022/01/26 11:55:22;;;;;;;139.45;58.30;;;4.50;99.90;;;;;;5025148;28;20069;-40
2022/01/26 11:57:51;;;;;;;124.37;52.00;;;4.50;99.90;;;;;;5030679;28;20041;-41
2022/01/26 12:00:35;;;;;;;124.72;51.63;;;4.50;99.90;;;;;;5031415;28;20686;-42
2022/01/26 12:03:08;;;;;;;123.53;51.42;;;4.60;99.90;;;;;;5029245;28;20412;-41
2022/01/26 12:05:44;;;;;;;114.53;49.28;;;4.60;99.90;;;;;;5029546;28;20483;-41
2022/01/26 12:08:11;;;;;;;120.50;49.90;;;4.60;99.90;;;;;;5032863;28;20390;-42
2022/01/26 12:10:38;;;;;;;120.10;50.25;;;4.60;99.90;;;;;;5034840;28;20057;-42
2022/01/26 12:13:07;;;;;;;114.75;48.30;;;4.60;99.90;;;;;;5033656;28;20178;-41
2022/01/26 12:15:44;;;;;;;121.03;50.45;;;4.60;99.90;;;;;;5033078;28;20088;-42
2022/01/26 12:18:26;;;;;;;107.45;45.97;;;4.60;99.90;;;;;;5029596;28;20448;-42
2022/01/26 12:32:41;;;;;;;112.32;46.50;;;4.70;99.90;;;;;;5028271;28;20042;-41
2022/01/26 12:35:17;;;;;;;111.32;46.25;;;4.70;99.90;;;;;;5025061;28;20072;-41
2022/01/26 12:37:53;;;;;;;108.38;45.47;;;4.70;99.90;;;;;;5028319;28;20393;-42
2022/01/26 12:43:12;;;;;;;100.15;41.55;;;4.70;99.90;;;;;;5032881;28;20042;-42
2022/01/26 12:45:39;;;;;;;103.05;44.20;;;4.70;99.90;;;;;;5033925;28;20052;-41
2022/01/26 12:48:08;;;;;;;101.82;42.70;;;4.80;99.90;;;;;;5033628;28;20529;-42
2022/01/26 12:50:36;;;;;;;102.20;43.13;;;4.80;99.90;;;;;;5033190;28;20128;-41
2022/01/26 12:53:03;;;;;;;95.25;40.90;;;4.80;99.90;;;;;;5033771;28;20132;-42
2022/01/26 12:55:30;;;;;;;95.10;41.30;;;4.80;99.90;;;;;;5032722;28;20128;-41
2022/01/26 12:57:57;;;;;;;92.55;40.78;;;4.80;99.90;;;;;;5032950;28;20425;-42
2022/01/26 13:00:25;;;;;;;93.05;40.45;;;4.80;99.90;;;;;;5034239;28;20384;-42
2022/01/26 13:02:52;;;;;;;102.55;42.60;;;4.80;99.90;;;;;;5032302;28;20462;-41
2022/01/26 13:05:23;;;;;;;98.78;44.15;;;4.80;99.90;;;;;;5034814;28;20043;-41
2022/01/26 13:08:01;;;;;;;92.32;41.22;;;4.80;99.90;;;;;;5034906;28;20055;-42
2022/01/26 13:10:28;;;;;;;91.05;40.08;;;4.80;99.90;;;;;;5031149;28;20058;-41
2022/01/26 13:12:55;;;;;;;93.13;41.63;;;4.80;99.90;;;;;;5032751;28;20048;-41
2022/01/26 13:15:38;;;;;;;95.55;43.15;;;4.80;99.90;;;;;;5035464;28;20044;-42
2022/01/26 13:18:18;;;;;;;96.03;41.97;;;4.80;99.90;;;;;;5032580;28;20053;-41
2022/01/26 13:21:05;;;;;;;97.78;39.92;;;4.80;99.90;;;;;;5033236;28;20038;-41
2022/01/26 13:23:44;;;;;;;97.40;41.08;;;4.80;99.90;;;;;;5033467;28;20129;-41
2022/01/26 13:26:19;;;;;;;105.53;42.30;;;4.80;99.90;;;;;;5037038;28;20053;-41
2022/01/26 13:28:59;;;;;;;103.65;40.92;;;4.80;99.90;;;;;;5032585;28;20486;-42
2022/01/26 13:37:06;;;;;;;104.22;41.83;;;4.80;99.90;;;;;;5035517;28;20044;-43
2022/01/26 13:39:54;;;;;;;87.28;39.03;;;4.90;99.90;;;;;;5034227;28;20076;-41
2022/01/26 13:45:39;;;;;;;89.68;37.80;;;4.90;99.90;;;;;;4990369;28;20544;-42
2022/01/26 13:48:22;;;;;;;86.53;39.05;;;4.90;99.90;;;;;;5032784;28;20045;-42
2022/01/26 13:50:55;;;;;;;87.82;37.88;;;5.00;99.90;;;;;;5037285;28;20053;-41
2022/01/26 13:53:30;;;;;;;83.03;38.75;;;4.90;99.90;;;;;;5032013;28;20041;-42
2022/01/26 13:56:12;;;;;;;91.20;40.33;;;5.00;99.90;;;;;;5046515;28;20390;-42
2022/01/26 13:58:58;;;;;;;86.97;36.50;;;5.00;99.90;;;;;;5022319;28;20038;-42
2022/01/26 14:01:25;;;;;;;88.30;36.72;;;5.10;99.90;;;;;;5023838;28;20037;-41
2022/01/26 14:03:55;;;;;;;84.13;37.92;;;5.00;99.90;;;;;;5030895;28;20095;-43
2022/01/26 14:06:22;;;;;;;88.50;39.78;;;5.00;99.90;;;;;;5030772;28;20099;-41
2022/01/26 14:08:48;;;;;;;90.13;38.17;;;5.00;99.90;;;;;;5031834;28;20038;-42
2022/01/26 14:11:16;;;;;;;99.15;40.17;;;5.00;99.90;;;;;;5030411;28;20049;-42
2022/01/26 14:13:45;;;;;;;90.63;38.08;;;5.00;99.90;;;;;;5024822;28;20560;-42
2022/01/26 14:16:15;;;;;;;85.47;39.22;;;5.00;99.90;;;;;;5032485;28;20052;-42
2022/01/26 14:18:50;;;;;;;91.78;39.17;;;5.00;99.90;;;;;;5032511;28;20045;-41
2022/01/26 14:21:25;;;;;;;82.53;38.78;;;5.00;99.90;;;;;;5031513;28;20072;-42